Time;durP1;ratioP1;P1;durP2;ratioP2;P2;SDS_P1;SDS_P2;PMS_P1;PMS_P2;Temp;Humidity;BMP_temperature;BMP_pressure;BME280_temperature;BME280_humidity;BME280_pressure;Samples;Min_cycle;Max_cycle;Signal;HPM_P1;HPM_P2
2021/01/18 00:01:45;;;;;;;19.20;7.82;;;;;;;-12.19;61.35;93419.81;5114034;28;20031;-40
2021/01/18 00:04:10;;;;;;;22.58;11.88;;;;;;;-12.05;63.42;93416.88;5114045;28;20039;-41
2021/01/18 00:06:36;;;;;;;26.20;15.68;;;;;;;-12.08;63.03;93418.44;5113983;28;20027;-40
2021/01/18 00:09:02;;;;;;;25.30;13.35;;;;;;;-11.83;63.00;93410.78;5113957;28;20031;-40
2021/01/18 00:11:27;;;;;;;32.42;12.63;;;;;;;-11.69;62.16;93425.75;5113850;28;20099;-40
2021/01/18 00:13:54;;;;;;;20.35;8.35;;;;;;;-11.79;62.05;93432.78;5113806;28;20024;-40
2021/01/18 00:16:21;;;;;;;16.83;8.70;;;;;;;-11.91;61.84;93430.69;5113850;28;20408;-40
2021/01/18 00:18:47;;;;;;;20.27;10.02;;;;;;;-11.79;61.51;93435.44;5113801;28;20030;-40
2021/01/18 00:21:13;;;;;;;17.83;7.05;;;;;;;-11.91;60.98;93436.00;5113759;28;20059;-41
2021/01/18 00:23:39;;;;;;;11.07;7.00;;;;;;;-12.28;60.63;93438.94;5113539;27;20476;-40
2021/01/18 00:26:05;;;;;;;18.13;8.85;;;;;;;-12.53;61.04;93439.31;5113527;28;20094;-40
2021/01/18 00:28:31;;;;;;;16.20;8.88;;;;;;;-12.66;61.14;93443.69;5113620;28;20439;-40
2021/01/18 00:30:58;;;;;;;20.88;6.25;;;;;;;-12.82;60.99;93432.91;5113619;27;20495;-40
2021/01/18 00:33:24;;;;;;;14.70;8.07;;;;;;;-12.61;61.84;93447.81;5113413;28;20070;-40
2021/01/18 00:35:49;;;;;;;12.52;5.53;;;;;;;-12.65;62.55;93452.44;5113458;28;20058;-40
2021/01/18 00:38:14;;;;;;;13.65;6.07;;;;;;;-12.55;61.58;93444.28;5113289;28;20045;-40
2021/01/18 00:40:40;;;;;;;9.32;6.63;;;;;;;-12.33;60.35;93451.94;5112705;28;20031;-41
2021/01/18 00:43:05;;;;;;;23.75;5.60;;;;;;;-12.60;60.29;93457.28;5113224;28;20032;-41
2021/01/18 00:45:31;;;;;;;13.05;8.70;;;;;;;-12.64;61.92;93464.56;5113282;28;20028;-40
2021/01/18 00:47:56;;;;;;;17.23;8.32;;;;;;;-12.54;62.67;93461.72;5113146;28;20023;-40
2021/01/18 00:50:24;;;;;;;37.92;12.80;;;;;;;-12.52;61.66;93456.78;5113037;28;20069;-40
2021/01/18 00:52:51;;;;;;;21.85;10.70;;;;;;;-12.62;62.75;93462.25;5112986;28;20031;-40
2021/01/18 00:55:18;;;;;;;19.60;10.48;;;;;;;-12.56;62.16;93461.38;5112866;28;20160;-40
2021/01/18 00:57:44;;;;;;;28.23;11.85;;;;;;;-12.38;61.14;93468.34;5113145;28;20088;-40
2021/01/18 01:00:15;;;;;;;16.48;10.38;;;;;;;-12.27;59.90;93467.03;5111709;28;20031;-40
2021/01/18 01:02:42;;;;;;;24.23;11.73;;;;;;;-12.27;59.61;93467.03;5113006;28;20031;-40
2021/01/18 01:05:09;;;;;;;29.60;10.20;;;;;;;-12.77;60.33;93464.34;5112735;28;20528;-40
2021/01/18 01:07:42;;;;;;;15.30;7.90;;;;;;;-13.17;61.01;93467.97;5112782;28;20031;-39
2021/01/18 01:10:09;;;;;;;8.68;6.57;;;;;;;-13.07;61.35;93480.34;5112750;28;20072;-40
2021/01/18 01:12:35;;;;;;;23.73;8.17;;;;;;;-13.06;61.23;93478.47;5112765;28;20032;-40
2021/01/18 01:15:01;;;;;;;21.55;7.30;;;;;;;-13.12;61.62;93477.41;5112825;28;20141;-40
2021/01/18 01:17:26;;;;;;;17.38;8.48;;;;;;;-12.94;61.30;93477.88;5112707;28;20026;-40
2021/01/18 01:19:52;;;;;;;16.95;7.75;;;;;;;-12.99;63.48;93484.38;5112469;28;20019;-40
2021/01/18 01:22:18;;;;;;;30.63;8.75;;;;;;;-13.00;61.91;93466.97;5112634;28;20022;-40
2021/01/18 01:24:43;;;;;;;18.48;8.02;;;;;;;-12.75;60.99;93479.91;5112746;28;20088;-40
2021/01/18 01:27:09;;;;;;;17.05;7.28;;;;;;;-13.03;62.15;93485.59;5112537;28;20032;-40
2021/01/18 01:29:34;;;;;;;23.63;9.05;;;;;;;-13.05;62.88;93472.72;5112264;28;20051;-40
2021/01/18 01:32:00;;;;;;;9.07;5.97;;;;;;;-12.93;63.36;93469.53;5112253;28;20475;-40
2021/01/18 01:34:25;;;;;;;9.20;6.72;;;;;;;-13.07;61.86;93474.28;5112419;28;20084;-40
2021/01/18 01:36:50;;;;;;;8.02;5.07;;;;;;;-12.97;61.72;93476.78;5112199;28;20035;-40
2021/01/18 01:39:16;;;;;;;18.17;6.63;;;;;;;-12.94;61.71;93469.91;5112270;28;20047;-40
2021/01/18 01:41:41;;;;;;;26.10;9.70;;;;;;;-12.73;62.39;93466.97;5112387;28;20403;-40
2021/01/18 01:44:07;;;;;;;28.80;11.55;;;;;;;-12.69;62.53;93465.75;5112228;28;20023;-41
2021/01/18 01:46:32;;;;;;;24.25;11.57;;;;;;;-12.82;61.92;93462.13;5112189;28;20506;-40
2021/01/18 01:48:58;;;;;;;34.28;10.05;;;;;;;-12.87;60.78;93473.25;5110992;28;20023;-40
2021/01/18 01:51:25;;;;;;;18.85;8.20;;;;;;;-13.18;60.20;93471.75;5111930;28;20031;-40
2021/01/18 01:53:51;;;;;;;18.42;7.35;;;;;;;-13.22;60.05;93473.72;5110069;28;20088;-40
2021/01/18 01:56:17;;;;;;;17.85;5.72;;;;;;;-13.65;59.92;93475.34;5112281;28;20091;-40
2021/01/18 01:58:44;;;;;;;16.75;7.18;;;;;;;-14.21;61.53;93448.22;5110834;28;20023;-40
2021/01/18 02:01:09;;;;;;;11.05;7.07;;;;;;;-13.70;62.29;93473.09;5111961;28;20069;-41
2021/01/18 02:03:43;;;;;;;11.77;6.85;;;;;;;-13.76;62.02;93469.38;5112162;28;20080;-40
2021/01/18 02:06:09;;;;;;;6.20;4.30;;;;;;;-13.68;62.21;93468.91;5111746;28;20064;-39
2021/01/18 02:08:35;;;;;;;24.60;7.47;;;;;;;-13.69;62.30;93470.06;5110513;28;20034;-40
2021/01/18 02:11:01;;;;;;;5.80;3.78;;;;;;;-13.61;62.30;93465.44;5112102;28;20458;-40
2021/01/18 02:13:38;;;;;;;12.75;7.22;;;;;;;-13.49;61.32;93467.59;5111706;28;20023;-40
2021/01/18 02:16:06;;;;;;;3.85;3.45;;;;;;;-13.48;59.87;93475.16;5111857;28;20023;-40
2021/01/18 02:18:47;;;;;;;11.25;5.68;;;;;;;-13.50;60.59;93482.00;5111774;28;20089;-40
2021/01/18 02:21:21;;;;;;;7.05;4.57;;;;;;;-13.44;59.66;93483.06;5111817;28;20039;-40
2021/01/18 02:24:22;;;;;;;8.60;3.80;;;;;;;-13.50;59.67;93479.34;5111733;28;20027;-40
2021/01/18 02:27:17;;;;;;;5.45;4.65;;;;;;;-13.82;59.82;93471.72;5088400;28;20072;-40
2021/01/18 02:30:01;;;;;;;7.85;6.22;;;;;;;-13.87;60.23;93472.16;5110381;28;20583;-40
2021/01/18 02:33:04;;;;;;;5.15;2.20;;;;;;;-14.08;59.87;93475.75;5111565;28;20039;-40
2021/01/18 02:36:05;;;;;;;9.60;3.70;;;;;;;-13.91;59.73;93487.34;5111584;28;20106;-41
2021/01/18 02:38:54;;;;;;;3.95;2.80;;;;;;;-14.16;60.03;93484.19;5068985;28;20028;-40
2021/01/18 02:41:34;;;;;;;4.50;3.53;;;;;;;-14.33;60.42;93485.06;5107625;28;20035;-39
2021/01/18 02:44:03;;;;;;;7.28;3.90;;;;;;;-14.21;61.84;93482.69;5111590;28;20560;-40
2021/01/18 02:46:29;;;;;;;15.05;6.78;;;;;;;-14.05;61.94;93488.22;5110618;28;20020;-40
2021/01/18 02:48:55;;;;;;;5.75;3.25;;;;;;;-14.10;62.35;93486.03;5111518;28;20117;-40
2021/01/18 02:51:22;;;;;;;15.93;4.30;;;;;;;-13.86;60.94;93486.94;5110408;28;20028;-40
2021/01/18 02:54:06;;;;;;;9.63;4.20;;;;;;;-14.00;60.87;93489.69;5110190;28;20028;-40
2021/01/18 02:56:33;;;;;;;7.82;4.93;;;;;;;-14.14;60.72;93493.22;5111407;28;20269;-40
2021/01/18 02:58:59;;;;;;;5.68;3.33;;;;;;;-14.16;60.34;93492.13;5111433;28;20024;-39
2021/01/18 03:01:54;;;;;;;7.85;3.63;;;;;;;-14.16;59.79;93490.22;5111692;28;20020;-40
2021/01/18 03:04:41;;;;;;;7.72;3.45;;;;;;;-14.58;60.28;93503.84;5112131;28;20054;-40
2021/01/18 03:07:14;;;;;;;10.57;5.57;;;;;;;-14.50;60.27;93509.81;5115298;28;20027;-40
2021/01/18 03:09:44;;;;;;;5.72;3.13;;;;;;;-14.47;60.58;93517.78;5113896;28;20420;-40
2021/01/18 03:12:11;;;;;;;6.32;3.78;;;;;;;-14.46;59.88;93518.50;5113938;28;20034;-40
2021/01/18 03:14:48;;;;;;;4.72;4.07;;;;;;;-14.54;61.21;93525.75;5113928;28;20035;-40
2021/01/18 03:17:18;;;;;;;6.45;3.55;;;;;;;-14.42;59.91;93517.34;5114574;28;20094;-40
2021/01/18 03:19:44;;;;;;;16.02;5.22;;;;;;;-14.19;61.50;93511.47;5112942;28;20023;-40
2021/01/18 03:22:20;;;;;;;10.50;6.07;;;;;;;-14.27;61.27;93497.50;5114962;28;20025;-40
2021/01/18 03:24:46;;;;;;;14.88;6.75;;;;;;;-14.12;60.60;93508.75;5114860;28;20026;-40
2021/01/18 03:27:12;;;;;;;18.20;10.70;;;;;;;-14.05;60.21;93498.84;5114706;28;20032;-40
2021/01/18 03:29:37;;;;;;;20.77;12.50;;;;;;;-14.31;60.64;93502.09;5114548;28;20054;-40
2021/01/18 03:32:03;;;;;;;26.75;10.35;;;;;;;-14.27;60.90;93497.50;5114573;28;20024;-40
2021/01/18 03:34:29;;;;;;;13.48;6.72;;;;;;;-14.40;62.04;93501.78;5114740;28;20031;-40
2021/01/18 03:36:54;;;;;;;4.57;3.35;;;;;;;-14.49;62.32;93498.84;5114717;28;20099;-40
2021/01/18 03:39:19;;;;;;;10.57;4.55;;;;;;;-14.52;60.89;93494.31;5114392;28;20019;-39
2021/01/18 03:41:46;;;;;;;8.85;6.28;;;;;;;-14.46;60.31;93500.72;5114479;28;20015;-40
2021/01/18 03:44:12;;;;;;;9.95;4.60;;;;;;;-14.46;60.25;93515.84;5114570;28;20385;-40
2021/01/18 03:46:37;;;;;;;2.33;2.13;;;;;;;-14.74;60.76;93500.91;5114351;28;20038;-40
2021/01/18 03:49:03;;;;;;;7.90;3.50;;;;;;;-15.08;60.65;93497.31;5114282;28;20023;-40
2021/01/18 03:51:30;;;;;;;3.70;2.85;;;;;;;-14.95;61.28;93506.31;5114474;28;20053;-40
2021/01/18 03:53:56;;;;;;;15.00;5.90;;;;;;;-14.73;62.08;93509.59;5114251;28;20032;-40
2021/01/18 03:56:21;;;;;;;9.52;3.22;;;;;;;-14.91;60.90;93499.88;5114207;28;20027;-40
2021/01/18 03:58:46;;;;;;;4.18;2.55;;;;;;;-14.77;60.64;93503.56;5114117;28;20095;-40
2021/01/18 04:01:12;;;;;;;4.03;3.70;;;;;;;-14.72;59.58;93497.88;5114029;28;20023;-40
2021/01/18 04:03:37;;;;;;;8.60;3.72;;;;;;;-14.75;61.82;93506.59;5114189;28;20012;-40
2021/01/18 04:06:03;;;;;;;5.50;4.75;;;;;;;-14.60;60.97;93511.41;5110609;28;20051;-40
2021/01/18 04:08:28;;;;;;;8.65;5.97;;;;;;;-14.55;60.37;93518.94;5110871;28;20120;-39
2021/01/18 04:10:53;;;;;;;8.20;4.72;;;;;;;-14.80;60.98;93524.41;5113947;28;20022;-39
2021/01/18 04:13:19;;;;;;;5.55;3.95;;;;;;;-14.76;61.36;93527.03;5113801;28;20027;-39
2021/01/18 04:15:44;;;;;;;8.13;5.43;;;;;;;-14.73;61.87;93528.16;5112853;28;20015;-40
2021/01/18 04:18:10;;;;;;;5.45;4.30;;;;;;;-14.72;61.71;93525.09;5113708;28;20031;-39
2021/01/18 04:20:35;;;;;;;20.33;7.25;;;;;;;-14.86;61.55;93531.25;5113815;28;20027;-40
2021/01/18 04:23:04;;;;;;;17.05;6.88;;;;;;;-14.79;61.46;93546.38;5113821;28;20407;-40
2021/01/18 04:25:30;;;;;;;10.55;5.85;;;;;;;-14.62;62.20;93547.41;5113717;28;20030;-40
2021/01/18 04:27:57;;;;;;;15.25;7.53;;;;;;;-14.58;62.63;93540.94;5113471;28;20015;-40
2021/01/18 04:30:24;;;;;;;7.43;4.32;;;;;;;-14.49;62.59;93538.63;5113457;28;20043;-40
2021/01/18 04:33:03;;;;;;;38.10;17.40;;;;;;;-14.47;62.42;93536.31;5113350;28;20024;-40
2021/01/18 04:35:31;;;;;;;35.83;13.52;;;;;;;-14.56;62.13;93538.66;5113433;28;20027;-39
2021/01/18 04:37:56;;;;;;;;;;;;;;;-14.44;63.08;93534.81;5113800;28;20034;-40
2021/01/18 04:40:24;;;;;;;13.88;4.70;;;;;;;-14.70;62.58;93532.69;5113356;28;20310;-40
2021/01/18 04:42:50;;;;;;;11.25;5.85;;;;;;;-14.61;62.65;93540.94;5112164;28;20023;-39
2021/01/18 04:45:18;;;;;;;17.90;8.02;;;;;;;-14.50;63.18;93541.63;5113264;28;20058;-39
2021/01/18 04:47:44;;;;;;;;;;;;;;;-14.44;61.67;93540.84;5113679;28;20023;-39
2021/01/18 04:50:15;;;;;;;12.30;4.97;;;;;;;-14.54;61.98;93540.91;5113229;28;19907;-39
2021/01/18 04:52:43;;;;;;;8.13;3.47;;;;;;;-14.40;63.28;93548.78;5113047;28;20554;-40
2021/01/18 04:55:30;;;;;;;35.38;12.70;;;;;;;-14.32;63.48;93553.66;5113125;28;20047;-40
2021/01/18 04:58:12;;;;;;;20.08;8.45;;;;;;;-14.25;60.94;93558.13;5113010;28;20488;-39
2021/01/18 05:00:44;;;;;;;25.75;7.72;;;;;;;-14.56;61.81;93549.25;5112968;28;20081;-39
2021/01/18 05:03:13;;;;;;;14.80;6.55;;;;;;;-14.54;62.50;93562.88;5112735;28;20053;-39
2021/01/18 05:05:51;;;;;;;12.85;8.23;;;;;;;-14.53;61.31;93561.75;5113044;28;20023;-40
2021/01/18 05:08:35;;;;;;;18.60;7.95;;;;;;;-14.68;61.02;93559.56;5112837;28;20042;-39
2021/01/18 05:11:01;;;;;;;4.50;4.10;;;;;;;-14.86;60.90;93549.03;5112916;28;20035;-39
2021/01/18 05:13:29;;;;;;;23.13;5.50;;;;;;;-14.77;60.54;93561.88;5112586;28;20027;-39
2021/01/18 05:15:58;;;;;;;11.93;7.85;;;;;;;-14.70;61.52;93559.91;5111587;28;20522;-39
2021/01/18 05:18:24;;;;;;;27.38;7.35;;;;;;;-14.62;62.63;93568.59;5112707;28;20088;-40
2021/01/18 05:20:49;;;;;;;18.35;12.50;;;;;;;-14.47;62.03;93562.84;5111437;28;20504;-39
2021/01/18 05:23:15;;;;;;;17.15;11.45;;;;;;;-14.52;59.88;93565.88;5112519;28;20055;-39
2021/01/18 05:25:40;;;;;;;23.08;9.10;;;;;;;-14.58;59.60;93562.13;5112565;28;20130;-39
2021/01/18 05:28:10;;;;;;;19.58;9.38;;;;;;;-14.55;60.51;93566.66;5112098;28;20020;-39
2021/01/18 05:30:36;;;;;;;18.48;10.35;;;;;;;-14.68;60.22;93556.91;5111457;28;20028;-39
2021/01/18 05:33:15;;;;;;;13.15;8.55;;;;;;;-14.86;60.44;93562.28;5112275;28;20027;-39
2021/01/18 05:35:41;;;;;;;;;;;;;;;-14.75;60.43;93572.81;5112797;28;20028;-39
2021/01/18 05:38:11;;;;;;;26.50;8.27;;;;;;;-15.06;60.90;93569.94;5111854;28;20011;-40
2021/01/18 05:40:49;;;;;;;26.27;12.07;;;;;;;-15.07;61.16;93572.97;5111125;28;20019;-39
2021/01/18 05:43:16;;;;;;;21.20;11.13;;;;;;;-15.20;60.97;93563.94;5112372;28;20492;-40
2021/01/18 05:45:43;;;;;;;22.58;7.78;;;;;;;-15.16;61.19;93569.97;5112236;28;20446;-39
2021/01/18 05:48:10;;;;;;;9.30;5.03;;;;;;;-15.18;61.02;93577.56;5112406;28;20061;-40
2021/01/18 05:50:37;;;;;;;16.25;4.03;;;;;;;-15.18;60.68;93575.63;5112115;28;20015;-39
2021/01/18 05:53:28;;;;;;;3.00;2.60;;;;;;;-15.17;61.11;93589.63;5111981;28;20026;-39
2021/01/18 05:55:54;;;;;;;9.60;3.28;;;;;;;-15.04;61.04;93578.25;5107063;28;20059;-39
2021/01/18 05:58:33;;;;;;;5.45;4.93;;;;;;;-15.03;60.11;93581.66;5110812;28;20062;-39
2021/01/18 06:00:59;;;;;;;9.73;5.65;;;;;;;-15.10;61.80;93581.69;5112067;28;20051;-39
2021/01/18 06:03:31;;;;;;;17.17;7.93;;;;;;;-15.04;61.70;93580.13;5111869;28;20024;-39
2021/01/18 06:05:58;;;;;;;9.48;5.53;;;;;;;-14.98;61.94;93581.25;5110805;28;20181;-39
2021/01/18 06:08:24;;;;;;;16.70;9.98;;;;;;;-14.73;61.85;93586.44;5111982;28;20038;-39
2021/01/18 06:10:56;;;;;;;68.72;27.75;;;;;;;-14.52;61.60;93584.44;5111848;28;20027;-39
2021/01/18 06:13:25;;;;;;;95.22;38.25;;;;;;;-14.41;60.20;93587.78;5112040;28;20024;-40
2021/01/18 06:16:12;;;;;;;51.88;23.00;;;;;;;-14.49;60.37;93599.56;5111998;28;20031;-40
2021/01/18 06:18:39;;;;;;;47.47;22.48;;;;;;;-14.47;60.26;93597.28;5110067;28;20047;-39
2021/01/18 06:21:09;;;;;;;59.97;28.87;;;;;;;-14.45;59.88;93608.25;5091454;28;20016;-39
2021/01/18 06:23:36;;;;;;;41.70;20.25;;;;;;;-14.57;59.42;93616.63;5091607;28;20512;-39
2021/01/18 06:26:02;;;;;;;36.90;14.73;;;;;;;-14.52;59.23;93613.59;5091497;28;20035;-39
2021/01/18 06:28:32;;;;;;;11.65;6.68;;;;;;;-14.87;58.44;93608.44;5091409;28;20478;-39
2021/01/18 06:30:58;;;;;;;11.07;6.50;;;;;;;-15.24;59.47;93605.56;5091418;28;20024;-39
2021/01/18 06:33:42;;;;;;;11.50;7.07;;;;;;;-15.37;60.58;93602.53;5091320;28;20024;-39
2021/01/18 06:36:21;;;;;;;17.23;7.45;;;;;;;-15.49;61.11;93610.94;5091292;28;20028;-39
2021/01/18 06:38:50;;;;;;;6.43;5.85;;;;;;;-15.44;61.38;93607.16;5092427;28;20081;-39
2021/01/18 06:41:22;;;;;;;4.95;3.80;;;;;;;-15.06;61.36;93603.59;5095241;28;20475;-39
2021/01/18 06:43:47;;;;;;;23.70;10.48;;;;;;;-14.99;61.37;93614.19;5095235;28;20016;-39
2021/01/18 06:46:24;;;;;;;13.88;7.95;;;;;;;-15.00;62.12;93600.16;5095202;28;20020;-39
2021/01/18 06:48:51;;;;;;;11.57;7.53;;;;;;;-14.68;61.99;93620.50;5095173;28;20470;-39
2021/01/18 06:51:20;;;;;;;19.00;10.95;;;;;;;-14.43;60.39;93621.13;5095024;28;20052;-39
2021/01/18 06:53:47;;;;;;;21.38;10.20;;;;;;;-14.39;60.58;93614.66;5094911;28;20020;-39
2021/01/18 06:56:35;;;;;;;18.23;11.02;;;;;;;-14.34;60.48;93627.50;5095072;28;20023;-39
2021/01/18 06:59:25;;;;;;;18.75;10.80;;;;;;;-14.15;61.47;93623.56;5094943;28;20036;-39
2021/01/18 07:02:16;;;;;;;19.92;9.30;;;;;;;-14.06;60.79;93606.09;5102359;28;20580;-39
2021/01/18 07:04:46;;;;;;;37.60;21.25;;;;;;;-13.86;61.43;93627.56;5115033;28;20058;-39
2021/01/18 07:07:32;;;;;;;90.65;44.20;;;;;;;-13.62;61.02;93631.91;5115210;28;20097;-40
2021/01/18 07:10:00;;;;;;;63.70;31.80;;;;;;;-13.37;59.71;93632.47;5112866;28;20411;-39
2021/01/18 07:12:26;;;;;;;81.82;40.83;;;;;;;-13.27;60.16;93636.16;5105548;28;20031;-40
2021/01/18 07:14:59;;;;;;;64.97;34.80;;;;;;;-13.30;61.13;93634.28;5103656;28;20016;-40
2021/01/18 07:17:51;;;;;;;33.50;18.55;;;;;;;-13.13;62.68;93638.69;5100817;28;20016;-39
2021/01/18 07:20:21;;;;;;;49.28;24.73;;;;;;;-12.78;61.61;93638.28;5089618;28;20067;-40
2021/01/18 07:23:16;;;;;;;45.30;26.05;;;;;;;-12.37;60.76;93632.09;5094384;28;20485;-39
2021/01/18 07:25:48;;;;;;;40.25;21.75;;;;;;;-12.36;61.83;93630.97;5094440;28;20492;-39
2021/01/18 07:28:19;;;;;;;34.60;18.52;;;;;;;-11.72;61.27;93648.31;5094167;28;20063;-40
2021/01/18 07:30:46;;;;;;;35.92;17.00;;;;;;;-11.14;60.64;93659.56;5094262;28;20043;-40
2021/01/18 07:33:13;;;;;;;14.10;7.03;;;;;;;-10.82;59.07;93659.00;5094114;28;20056;-40
2021/01/18 07:35:39;;;;;;;18.27;9.30;;;;;;;-10.81;58.42;93639.94;5094317;28;20031;-40
2021/01/18 07:38:27;;;;;;;23.30;12.95;;;;;;;-10.25;58.42;93651.44;5103054;28;20027;-40
2021/01/18 07:41:07;;;;;;;36.05;14.80;;;;;;;-10.26;58.34;93657.94;5108077;28;20042;-40
2021/01/18 07:43:37;;;;;;;35.88;20.73;;;;;;;-10.33;59.12;93664.16;5094244;28;20024;-40
2021/01/18 07:46:30;;;;;;;43.15;18.63;;;;;;;-10.29;59.93;93669.47;5094028;28;20031;-40
2021/01/18 07:49:14;;;;;;;41.15;18.52;;;;;;;-10.34;60.40;93661.91;5093985;28;20099;-39
2021/01/18 07:51:39;;;;;;;42.17;18.65;;;;;;;-10.50;62.26;93646.59;5106492;28;20027;-40
2021/01/18 07:54:05;;;;;;;50.78;23.65;;;;;;;-10.27;62.47;93659.88;5114120;27;20023;-39
2021/01/18 07:56:31;;;;;;;47.10;21.27;;;;;;;-9.86;61.99;93664.72;5114493;28;20023;-40
2021/01/18 07:59:06;;;;;;;60.95;26.63;;;;;;;-9.75;62.29;93669.84;5100596;27;20042;-40
2021/01/18 08:01:39;;;;;;;43.65;20.83;;;;;;;-9.53;61.09;93676.97;5114169;28;20035;-40
2021/01/18 08:04:16;;;;;;;35.20;16.38;;;;;;;-9.40;59.77;93675.13;5114024;28;20027;-40
2021/01/18 08:07:04;;;;;;;26.93;16.17;;;;;;;-9.39;59.46;93678.56;5114165;28;20023;-40
2021/01/18 08:09:30;;;;;;;20.35;9.10;;;;;;;-9.07;58.78;93667.88;5114042;28;20027;-39
2021/01/18 08:12:33;;;;;;;23.90;13.30;;;;;;;-8.84;57.04;93666.97;5113894;28;20020;-40
2021/01/18 08:15:09;;;;;;;25.67;13.23;;;;;;;-8.77;57.69;93672.88;5114001;28;20027;-39
2021/01/18 08:17:35;;;;;;;19.08;9.57;;;;;;;-8.58;56.69;93658.66;5102052;28;20461;-40
2021/01/18 08:20:10;;;;;;;26.98;9.82;;;;;;;-8.77;56.07;93664.84;5093374;28;20024;-39
2021/01/18 08:22:36;;;;;;;31.60;17.15;;;;;;;-8.45;58.26;93666.72;5095921;28;20032;-40
2021/01/18 08:25:05;;;;;;;28.05;13.02;;;;;;;-7.35;55.07;93656.28;5102008;28;20018;-40
2021/01/18 08:27:38;;;;;;;39.53;17.00;;;;;;;-6.98;54.03;93653.56;5113666;28;20039;-41
2021/01/18 08:30:20;;;;;;;37.50;14.32;;;;;;;-6.93;53.40;93661.06;5096409;28;20593;-40
2021/01/18 08:32:56;;;;;;;33.75;14.57;;;;;;;-6.76;53.22;93656.31;5092990;28;20032;-42
2021/01/18 08:35:31;;;;;;;58.35;27.02;;;;;;;-7.14;54.58;93669.78;5092957;28;20020;-40
2021/01/18 08:38:07;;;;;;;58.80;27.35;;;;;;;-6.66;54.82;93668.63;5093063;28;20028;-41
2021/01/18 08:40:42;;;;;;;30.75;12.52;;;;;;;-6.58;55.92;93669.91;5093130;28;20069;-41
2021/01/18 08:43:08;;;;;;;41.33;18.75;;;;;;;-6.64;54.71;93663.59;5093055;28;20020;-41
2021/01/18 08:45:45;;;;;;;42.28;19.92;;;;;;;-6.63;55.25;93673.16;5092882;28;20027;-41
2021/01/18 08:48:12;;;;;;;42.08;21.45;;;;;;;-6.75;56.32;93675.84;5092940;28;20497;-42
2021/01/18 08:50:54;;;;;;;43.03;17.10;;;;;;;-7.15;56.96;93679.03;5091671;28;20426;-41
2021/01/18 08:53:46;;;;;;;49.20;19.55;;;;;;;-7.37;57.20;93672.06;5092584;28;20082;-40
2021/01/18 08:56:21;;;;;;;51.88;23.83;;;;;;;-7.77;60.29;93672.44;5105273;28;20044;-40
2021/01/18 08:58:47;;;;;;;55.72;24.02;;;;;;;-7.42;62.58;93673.34;5112738;28;20114;-40
2021/01/18 09:01:16;;;;;;;51.65;23.02;;;;;;;-7.08;63.28;93661.97;5112073;28;20528;-40
2021/01/18 09:03:41;;;;;;;44.45;18.67;;;;;;;-6.68;64.23;93662.19;5112335;28;20069;-40
2021/01/18 09:06:07;;;;;;;35.53;17.38;;;;;;;-6.13;61.84;93655.34;5112230;27;20035;-41
2021/01/18 09:08:33;;;;;;;42.17;18.67;;;;;;;-5.75;59.85;93663.94;5112595;28;20023;-41
2021/01/18 09:11:07;;;;;;;41.33;18.15;;;;;;;-5.49;59.41;93659.88;5112071;28;20031;-41
2021/01/18 09:13:33;;;;;;;32.17;15.52;;;;;;;-5.27;59.59;93660.59;5112164;28;20034;-41
2021/01/18 09:16:03;;;;;;;29.35;13.20;;;;;;;-4.97;59.33;93667.88;5112310;28;20031;-41
2021/01/18 09:18:28;;;;;;;32.33;13.85;;;;;;;-5.28;58.48;93652.97;5112035;28;20035;-42
2021/01/18 09:20:56;;;;;;;57.97;22.73;;;;;;;-5.02;58.98;93638.84;5112037;28;20019;-40
2021/01/18 09:23:22;;;;;;;63.47;24.95;;;;;;;-4.40;56.93;93650.19;5111905;28;20034;-41
2021/01/18 09:25:47;;;;;;;28.48;13.30;;;;;;;-4.08;57.17;93643.44;5111898;28;20453;-41
2021/01/18 09:28:14;;;;;;;12.88;8.35;;;;;;;-4.05;56.05;93637.16;5110477;28;20027;-40
2021/01/18 09:30:43;;;;;;;15.18;7.78;;;;;;;-3.77;55.29;93635.19;5112042;28;20096;-41
2021/01/18 09:33:12;;;;;;;26.63;10.20;;;;;;;-3.59;55.01;93635.13;5112059;28;20066;-41
2021/01/18 09:35:43;;;;;;;24.40;10.10;;;;;;;-3.49;54.29;93634.66;5111762;28;20115;-41
2021/01/18 09:38:10;;;;;;;16.90;9.50;;;;;;;-3.25;54.24;93630.06;5111759;28;20083;-41
2021/01/18 09:40:40;;;;;;;12.32;7.00;;;;;;;-3.19;52.99;93628.25;5110438;28;20518;-41
2021/01/18 09:43:07;;;;;;;22.02;8.90;;;;;;;-2.96;52.85;93626.81;5111714;28;20020;-43
2021/01/18 09:45:33;;;;;;;13.80;7.70;;;;;;;-2.65;52.95;93632.66;5111595;28;20027;-41
2021/01/18 09:48:08;;;;;;;18.60;9.75;;;;;;;-2.21;50.82;93630.09;5111654;28;20054;-43
2021/01/18 09:50:36;;;;;;;15.30;8.13;;;;;;;-2.07;50.91;93640.19;5103254;28;20504;-42
2021/01/18 09:53:09;;;;;;;15.60;8.18;;;;;;;-1.50;49.55;93627.22;5090096;28;20134;-41
2021/01/18 09:55:37;;;;;;;15.27;6.97;;;;;;;-1.07;48.85;93615.59;5091233;28;20020;-42
2021/01/18 09:58:19;;;;;;;14.15;8.00;;;;;;;-1.29;48.53;93617.19;5089980;28;20023;-41
2021/01/18 10:00:48;;;;;;;20.55;8.45;;;;;;;-0.69;48.34;93614.66;5091084;28;20043;-41
2021/01/18 10:03:34;;;;;;;15.98;7.60;;;;;;;-0.09;46.33;93595.66;5091023;28;20028;-41
2021/01/18 10:06:12;;;;;;;21.25;10.80;;;;;;;-0.01;46.22;93604.91;5090938;28;20020;-43
2021/01/18 10:08:40;;;;;;;18.60;10.18;;;;;;;-0.28;45.22;93599.88;5091032;28;20059;-42
2021/01/18 10:11:06;;;;;;;22.50;11.15;;;;;;;-0.31;45.00;93600.09;5089776;28;20031;-41
2021/01/18 10:13:31;;;;;;;15.80;8.48;;;;;;;-0.29;44.95;93598.41;5094225;28;20111;-43
2021/01/18 10:16:09;;;;;;;13.55;7.90;;;;;;;-0.23;45.78;93603.91;5099169;28;20016;-41
2021/01/18 10:18:40;;;;;;;22.70;10.50;;;;;;;0.43;44.25;93593.75;5100644;28;20031;-42
2021/01/18 10:21:07;;;;;;;17.83;9.48;;;;;;;0.77;43.83;93589.34;5107661;28;20381;-42
2021/01/18 10:23:40;;;;;;;16.20;8.98;;;;;;;1.91;41.12;93591.75;5102815;28;20511;-45
2021/01/18 10:26:25;;;;;;;20.42;10.43;;;;;;;2.50;38.38;93584.22;5113859;28;20496;-44
2021/01/18 10:29:01;;;;;;;15.07;8.35;;;;;;;3.39;37.51;93589.69;5115216;28;20059;-42
2021/01/18 10:31:29;;;;;;;13.63;7.85;;;;;;;3.16;36.42;93590.97;5115397;28;20577;-42
2021/01/18 10:34:16;;;;;;;14.35;8.63;;;;;;;2.65;36.59;93587.47;5115113;28;20063;-42
2021/01/18 10:36:47;;;;;;;12.55;6.80;;;;;;;2.13;37.67;93595.28;5115188;28;20024;-42
2021/01/18 10:39:31;;;;;;;11.50;7.65;;;;;;;2.19;38.27;93589.84;5115452;28;20389;-42
2021/01/18 10:42:03;;;;;;;12.48;7.07;;;;;;;2.07;38.10;93586.38;5115150;28;20015;-44
2021/01/18 10:44:28;;;;;;;20.70;11.30;;;;;;;2.10;38.38;93576.47;5115204;28;20102;-42
2021/01/18 10:46:54;;;;;;;20.00;8.82;;;;;;;1.93;38.08;93572.94;5115248;28;20542;-42
2021/01/18 10:49:38;;;;;;;17.45;9.65;;;;;;;1.02;40.33;93576.94;5114992;28;20043;-42
2021/01/18 10:52:15;;;;;;;20.55;10.85;;;;;;;0.80;40.67;93566.66;5113487;28;20111;-43
2021/01/18 10:54:40;;;;;;;17.95;10.07;;;;;;;0.30;41.79;93576.34;5106866;28;20027;-42
2021/01/18 10:57:20;;;;;;;25.95;11.63;;;;;;;0.33;42.59;93576.13;5103564;28;20104;-43
2021/01/18 10:59:45;;;;;;;20.55;9.75;;;;;;;1.86;38.86;93559.81;5104298;28;20016;-43
2021/01/18 11:02:13;;;;;;;15.20;8.50;;;;;;;3.34;36.76;93566.63;5102956;28;20020;-42
2021/01/18 11:04:45;;;;;;;10.30;5.78;;;;;;;4.62;33.81;93569.56;5103968;28;20102;-43
2021/01/18 11:07:12;;;;;;;18.90;9.10;;;;;;;5.11;32.45;93560.22;5102858;28;20032;-42
2021/01/18 11:09:38;;;;;;;24.73;10.57;;;;;;;5.28;32.67;93541.66;5104200;28;20103;-42
2021/01/18 11:12:04;;;;;;;20.33;10.50;;;;;;;5.70;31.60;93564.13;5104853;28;20392;-43
2021/01/18 11:14:31;;;;;;;14.48;6.65;;;;;;;6.29;31.21;93552.25;5103081;28;20020;-43
2021/01/18 11:16:59;;;;;;;22.40;12.32;;;;;;;6.30;30.59;93557.25;5108699;28;20110;-43
2021/01/18 11:19:25;;;;;;;19.43;10.60;;;;;;;6.77;28.99;93546.59;5114347;27;20059;-44
2021/01/18 11:21:51;;;;;;;20.00;10.00;;;;;;;7.16;28.66;93548.72;5114396;28;20323;-43
2021/01/18 11:24:16;;;;;;;16.60;10.05;;;;;;;7.62;27.68;93539.94;5114048;28;20027;-44
2021/01/18 11:26:41;;;;;;;17.27;8.98;;;;;;;7.71;27.97;93538.78;5114353;28;20039;-45
2021/01/18 11:29:07;;;;;;;19.92;10.98;;;;;;;7.80;27.40;93547.34;5114007;28;20040;-44
2021/01/18 11:31:32;;;;;;;12.70;7.82;;;;;;;7.96;26.70;93535.31;5114121;28;20034;-45
2021/01/18 11:33:58;;;;;;;15.48;8.60;;;;;;;7.92;27.61;93540.38;5114442;27;20024;-46
2021/01/18 11:36:24;;;;;;;9.10;5.88;;;;;;;8.26;27.11;93543.22;5114234;28;20012;-43